createdAt,value
2023-04-16T00:00:03.289Z,38.70
2023-04-16T00:02:31.036Z,43.70
2023-04-16T00:04:58.677Z,44.65
2023-04-16T00:07:26.332Z,43.88
2023-04-16T00:09:53.839Z,37.83
2023-04-16T00:12:21.577Z,42.78
2023-04-16T00:14:50.392Z,47.25
2023-04-16T00:17:17.886Z,41.30
2023-04-16T00:19:45.572Z,40.30
2023-04-16T00:22:13.099Z,36.50
2023-04-16T00:24:40.617Z,37.22
2023-04-16T00:27:08.086Z,37.75
2023-04-16T00:29:35.717Z,35.30
2023-04-16T00:32:04.499Z,42.95
2023-04-16T00:34:31.973Z,43.63
2023-04-16T00:36:59.458Z,41.17
2023-04-16T00:39:26.960Z,42.22
2023-04-16T00:41:54.551Z,41.63
2023-04-16T00:44:22.123Z,43.28
2023-04-16T00:46:49.774Z,41.60
2023-04-16T00:49:18.735Z,42.00
2023-04-16T00:51:46.235Z,43.92
2023-04-16T00:54:13.744Z,38.88
2023-04-16T00:56:41.484Z,39.90
2023-04-16T00:59:09.905Z,37.58
2023-04-16T01:01:37.810Z,43.58
2023-04-16T01:04:07.130Z,41.42
2023-04-16T01:06:36.240Z,42.30
2023-04-16T01:09:03.889Z,45.20
2023-04-16T01:11:31.365Z,46.25
2023-04-16T01:13:58.873Z,41.70
2023-04-16T01:16:26.702Z,39.63
2023-04-16T01:18:54.304Z,43.47
2023-04-16T01:21:23.091Z,41.05
2023-04-16T01:23:50.606Z,46.50
2023-04-16T01:26:18.085Z,35.20
2023-04-16T01:28:45.652Z,39.08
2023-04-16T01:31:13.156Z,44.25
2023-04-16T01:33:40.734Z,48.67
2023-04-16T01:36:08.501Z,47.88
2023-04-16T01:38:37.315Z,45.60
2023-04-16T01:41:04.852Z,44.05
2023-04-16T01:43:32.430Z,44.70
2023-04-16T01:46:12.614Z,48.08
2023-04-16T01:48:40.185Z,38.67
2023-04-16T01:51:09.195Z,48.15
2023-04-16T01:53:38.113Z,39.20
2023-04-16T01:56:06.878Z,48.03
2023-04-16T01:58:34.694Z,38.90
2023-04-16T02:01:02.305Z,53.60
2023-04-16T02:03:30.026Z,49.38
2023-04-16T02:05:57.711Z,54.70
2023-04-16T02:08:25.406Z,44.53
2023-04-16T02:10:54.710Z,48.33
2023-04-16T02:13:23.256Z,52.60
2023-04-16T02:15:51.641Z,49.60
2023-04-16T02:18:19.870Z,47.60
2023-04-16T02:20:49.500Z,57.17
2023-04-16T02:23:17.050Z,52.60
2023-04-16T02:25:46.318Z,40.42
2023-04-16T02:28:16.646Z,50.88
2023-04-16T02:30:44.520Z,48.97
2023-04-16T02:33:13.021Z,45.85
2023-04-16T02:35:41.046Z,34.40
2023-04-16T02:38:08.885Z,53.15
2023-04-16T02:40:36.650Z,50.67
2023-04-16T02:43:04.409Z,59.90
2023-04-16T02:45:33.297Z,59.33
2023-04-16T02:48:01.632Z,50.92
2023-04-16T02:50:29.163Z,48.85
2023-04-16T02:52:56.754Z,45.42
2023-04-16T02:55:24.248Z,47.97
2023-04-16T02:57:52.771Z,47.70
2023-04-16T03:00:20.787Z,57.92
2023-04-16T03:02:49.827Z,58.15
2023-04-16T03:05:17.669Z,50.45
2023-04-16T03:07:45.403Z,56.33
2023-04-16T03:10:13.864Z,56.40
2023-04-16T03:12:41.470Z,58.13
2023-04-16T03:15:09.947Z,60.63
2023-04-16T03:17:37.571Z,51.30
2023-04-16T03:20:08.300Z,59.80
2023-04-16T03:22:35.920Z,50.15
2023-04-16T03:25:03.541Z,56.70
2023-04-16T03:27:31.137Z,53.20
2023-04-16T03:29:58.723Z,53.75
2023-04-16T03:32:26.758Z,53.92
2023-04-16T03:34:54.363Z,52.30
2023-04-16T03:37:23.202Z,54.28
2023-04-16T03:39:50.690Z,50.13
2023-04-16T03:42:18.191Z,52.03
2023-04-16T03:44:45.924Z,42.08
2023-04-16T03:47:13.433Z,56.58
2023-04-16T03:49:40.940Z,52.42
2023-04-16T03:52:08.438Z,50.88
2023-04-16T03:54:37.245Z,48.17
2023-04-16T03:57:05.143Z,57.40
2023-04-16T03:59:32.622Z,56.47
2023-04-16T04:02:00.338Z,58.95
2023-04-16T04:04:28.010Z,54.70
2023-04-16T04:06:55.654Z,54.65
2023-04-16T04:09:23.120Z,51.72
2023-04-16T04:11:51.969Z,49.90
2023-04-16T04:14:19.450Z,46.45
2023-04-16T04:16:46.979Z,52.83
2023-04-16T04:19:14.528Z,46.92
2023-04-16T04:21:42.065Z,52.05
2023-04-16T04:24:09.661Z,59.58
2023-04-16T04:26:37.250Z,59.53
2023-04-16T04:29:06.200Z,51.78
2023-04-16T04:31:33.745Z,55.70
2023-04-16T04:34:01.362Z,50.28
2023-04-16T04:36:28.961Z,49.33
2023-04-16T04:38:56.479Z,58.30
2023-04-16T04:41:23.998Z,57.75
2023-04-16T04:43:51.884Z,55.53
2023-04-16T04:46:20.874Z,57.78
2023-04-16T04:48:48.501Z,55.33
2023-04-16T04:51:15.979Z,58.75
2023-04-16T04:53:43.470Z,57.97
2023-04-16T04:56:12.889Z,59.15
2023-04-16T04:58:41.304Z,57.10
2023-04-16T05:01:08.882Z,42.53
2023-04-16T05:03:38.080Z,56.08
2023-04-16T05:06:06.107Z,54.53
2023-04-16T05:08:33.671Z,53.72
2023-04-16T05:11:01.487Z,50.47
2023-04-16T05:13:28.984Z,51.30
2023-04-16T05:15:56.484Z,57.55
2023-04-16T05:18:24.024Z,57.13
2023-04-16T05:20:52.847Z,54.50
2023-04-16T05:23:20.411Z,48.47
2023-04-16T05:25:47.913Z,58.67
2023-04-16T05:28:15.393Z,52.75
2023-04-16T05:30:42.922Z,55.05
2023-04-16T05:33:10.451Z,53.65
2023-04-16T05:35:39.998Z,55.78
2023-04-16T05:38:08.801Z,51.58
2023-04-16T05:40:36.332Z,51.85
2023-04-16T05:43:03.896Z,58.00
2023-04-16T05:45:33.354Z,52.70
2023-04-16T05:48:00.850Z,50.65
2023-04-16T05:50:28.380Z,49.75
2023-04-16T05:52:55.866Z,47.95
2023-04-16T05:55:24.670Z,54.42
2023-04-16T05:57:52.184Z,54.22
2023-04-16T06:00:19.772Z,53.35
2023-04-16T06:02:47.337Z,54.38
2023-04-16T06:05:15.084Z,48.95
2023-04-16T06:07:42.634Z,55.53
2023-04-16T06:10:11.114Z,56.15
2023-04-16T06:12:40.023Z,54.53
2023-04-16T06:15:08.797Z,58.28
2023-04-16T06:17:36.305Z,51.80
2023-04-16T06:20:04.799Z,54.88
2023-04-16T06:22:32.408Z,55.15
2023-04-16T06:24:59.891Z,55.78
2023-04-16T06:27:27.564Z,56.53
2023-04-16T06:29:57.949Z,58.80
2023-04-16T06:32:25.955Z,88.50
2023-04-16T06:34:53.473Z,104.40
2023-04-16T06:37:20.944Z,68.63
2023-04-16T06:39:48.442Z,76.13
2023-04-16T06:42:16.123Z,105.30
2023-04-16T06:44:43.639Z,59.50
2023-04-16T06:47:12.570Z,58.15
2023-04-16T06:49:40.374Z,55.20
2023-04-16T06:52:07.977Z,56.28
2023-04-16T06:54:35.500Z,53.45
2023-04-16T06:57:03.010Z,57.13
2023-04-16T06:59:30.523Z,57.65
2023-04-16T07:01:58.258Z,54.33
2023-04-16T07:04:27.201Z,58.45
2023-04-16T07:06:54.697Z,75.63
2023-04-16T07:09:22.309Z,53.13
2023-04-16T07:11:49.869Z,54.10
2023-04-16T07:14:17.416Z,58.53
2023-04-16T07:16:44.919Z,51.58
2023-04-16T07:19:12.491Z,60.25
2023-04-16T07:21:43.541Z,49.75
2023-04-16T07:24:11.311Z,51.38
2023-04-16T07:26:38.826Z,57.30
2023-04-16T07:29:06.370Z,62.08
2023-04-16T07:31:33.894Z,60.75
2023-04-16T07:34:01.408Z,50.20
2023-04-16T07:36:29.217Z,53.78
2023-04-16T07:38:58.037Z,55.00
2023-04-16T07:41:25.884Z,86.13
2023-04-16T07:43:53.384Z,77.03
2023-04-16T07:46:21.147Z,60.60
2023-04-16T07:48:48.729Z,61.15
2023-04-16T07:51:16.289Z,50.55
2023-04-16T07:53:43.787Z,56.33
2023-04-16T07:56:12.666Z,62.00
2023-04-16T07:58:40.279Z,72.25
2023-04-16T08:01:07.786Z,67.15
2023-04-16T08:03:35.496Z,76.53
2023-04-16T08:06:03.365Z,77.55
2023-04-16T08:08:30.840Z,65.07
2023-04-16T08:10:58.516Z,59.63
2023-04-16T08:13:27.347Z,45.90
2023-04-16T08:15:54.864Z,44.45
2023-04-16T08:18:22.380Z,53.78
2023-04-16T08:20:49.852Z,49.85
2023-04-16T08:23:17.359Z,49.10
2023-04-16T08:25:44.820Z,52.20
2023-04-16T08:28:12.331Z,57.75
2023-04-16T08:30:41.243Z,53.03
2023-04-16T08:33:09.140Z,52.90
2023-04-16T08:35:36.864Z,61.55
2023-04-16T08:38:04.734Z,46.42
2023-04-16T08:40:32.438Z,63.33
2023-04-16T08:43:01.008Z,53.53
2023-04-16T08:45:28.535Z,52.90
2023-04-16T08:47:57.722Z,53.33
2023-04-16T08:50:26.599Z,52.63
2023-04-16T08:52:57.507Z,51.95
2023-04-16T08:55:27.893Z,50.60
2023-04-16T08:57:59.183Z,46.42
2023-04-16T09:00:26.910Z,44.95
2023-04-16T09:02:54.988Z,51.10
2023-04-16T09:05:25.740Z,51.75
2023-04-16T09:07:54.172Z,53.17
2023-04-16T09:10:21.883Z,47.17
2023-04-16T09:12:49.424Z,49.88
2023-04-16T09:15:16.939Z,51.97
2023-04-16T09:17:44.511Z,46.97
2023-04-16T09:20:12.557Z,55.95
2023-04-16T09:22:41.495Z,63.33
2023-04-16T09:25:09.842Z,52.22
2023-04-16T09:27:37.947Z,58.95
2023-04-16T09:30:21.912Z,53.17
2023-04-16T09:32:49.976Z,58.30
2023-04-16T09:35:18.799Z,48.28
2023-04-16T09:37:57.614Z,55.85
2023-04-16T09:40:26.125Z,50.08
2023-04-16T09:42:56.066Z,55.28
2023-04-16T09:45:23.815Z,64.40
2023-04-16T09:47:51.522Z,67.93
2023-04-16T09:50:20.536Z,60.33
2023-04-16T09:52:51.409Z,57.45
2023-04-16T09:55:23.975Z,55.95
2023-04-16T09:57:59.847Z,54.47
2023-04-16T10:00:27.388Z,62.55
2023-04-16T10:03:04.901Z,55.53
2023-04-16T10:05:32.452Z,52.20
2023-04-16T10:08:02.580Z,58.75
2023-04-16T10:10:30.491Z,56.80
2023-04-16T10:12:58.507Z,60.55
2023-04-16T10:15:26.264Z,52.50
2023-04-16T10:17:55.141Z,59.40
2023-04-16T10:20:23.853Z,58.30
2023-04-16T10:22:51.440Z,59.40
2023-04-16T10:25:20.921Z,64.20
2023-04-16T10:27:48.999Z,60.65
2023-04-16T10:30:16.690Z,57.47
2023-04-16T10:32:44.812Z,64.43
2023-04-16T10:35:16.781Z,60.72
2023-04-16T10:37:46.094Z,58.40
2023-04-16T10:40:24.875Z,56.42
2023-04-16T10:42:58.117Z,53.10
2023-04-16T10:45:32.420Z,53.00
2023-04-16T10:48:00.057Z,58.92
2023-04-16T10:50:36.055Z,58.88
2023-04-16T10:53:24.021Z,63.83
2023-04-16T10:56:00.458Z,59.40
2023-04-16T10:58:28.573Z,55.13
2023-04-16T11:00:56.074Z,64.50
2023-04-16T11:03:23.703Z,83.40
2023-04-16T11:05:51.269Z,88.32
2023-04-16T11:08:18.761Z,59.33
2023-04-16T11:10:46.296Z,49.28
2023-04-16T11:13:15.294Z,57.22
2023-04-16T11:15:42.815Z,51.05
2023-04-16T11:18:10.750Z,51.45
2023-04-16T11:20:42.544Z,52.70
2023-04-16T11:23:13.083Z,56.72
2023-04-16T11:25:40.686Z,50.95
2023-04-16T11:28:08.190Z,51.30
2023-04-16T11:30:38.606Z,46.75
2023-04-16T11:33:06.722Z,50.70
2023-04-16T11:35:34.390Z,55.72
2023-04-16T11:38:02.264Z,60.50
2023-04-16T11:40:30.851Z,57.13
2023-04-16T11:43:02.758Z,62.47
2023-04-16T11:45:30.509Z,52.30
2023-04-16T11:47:59.392Z,51.35
2023-04-16T11:50:27.730Z,50.53
2023-04-16T11:52:57.081Z,52.38
2023-04-16T11:55:25.057Z,51.60
2023-04-16T11:57:52.579Z,44.85
2023-04-16T12:00:21.607Z,43.58
2023-04-16T12:02:53.331Z,44.10
2023-04-16T12:05:30.839Z,49.65
2023-04-16T12:07:59.019Z,51.70
2023-04-16T12:10:27.404Z,49.15
2023-04-16T12:12:55.005Z,48.10
2023-04-16T12:15:22.511Z,51.67
2023-04-16T12:17:50.559Z,47.75
2023-04-16T12:20:18.116Z,46.70
2023-04-16T12:22:49.450Z,47.97
2023-04-16T12:25:18.777Z,51.05
2023-04-16T12:27:48.616Z,45.55
2023-04-16T12:30:18.399Z,48.35
2023-04-16T12:32:47.543Z,51.45
2023-04-16T12:35:15.643Z,43.65
2023-04-16T12:37:43.159Z,44.80
2023-04-16T12:40:12.554Z,56.33
2023-04-16T12:42:40.243Z,47.30
2023-04-16T12:45:08.416Z,49.97
2023-04-16T12:47:36.025Z,56.38
2023-04-16T12:50:03.653Z,44.58
2023-04-16T12:52:31.194Z,52.42
2023-04-16T12:54:58.706Z,42.72
2023-04-16T12:57:28.726Z,44.42
2023-04-16T12:59:56.965Z,47.65
2023-04-16T13:02:24.778Z,49.38
2023-04-16T13:04:52.649Z,52.78
2023-04-16T13:07:20.385Z,45.30
2023-04-16T13:09:48.243Z,46.97
2023-04-16T13:12:15.735Z,43.80
2023-04-16T13:14:45.200Z,47.83
2023-04-16T13:17:12.759Z,43.38
2023-04-16T13:19:40.292Z,44.00
2023-04-16T13:22:07.793Z,40.20
2023-04-16T13:24:35.435Z,37.22
2023-04-16T13:27:03.134Z,39.70
2023-04-16T13:29:30.914Z,36.90
2023-04-16T13:31:59.753Z,36.28
2023-04-16T13:34:27.421Z,34.63
2023-04-16T13:36:54.897Z,35.72
2023-04-16T13:39:22.419Z,36.88
2023-04-16T13:41:51.291Z,33.65
2023-04-16T13:44:18.827Z,36.63
2023-04-16T13:46:47.719Z,40.72
2023-04-16T13:49:16.933Z,36.95
2023-04-16T13:51:45.036Z,40.65
2023-04-16T13:54:12.580Z,42.03
2023-04-16T13:56:40.911Z,52.53
2023-04-16T13:59:08.777Z,42.47
2023-04-16T14:01:36.582Z,45.80
2023-04-16T14:04:06.382Z,36.08
2023-04-16T14:06:35.905Z,41.03
2023-04-16T14:09:04.530Z,39.75
2023-04-16T14:11:32.236Z,53.60
2023-04-16T14:13:59.782Z,37.85
2023-04-16T14:16:27.531Z,55.75
2023-04-16T14:18:55.332Z,36.50
2023-04-16T14:21:22.992Z,41.40
2023-04-16T14:23:51.907Z,55.65
2023-04-16T14:26:19.459Z,70.00
2023-04-16T14:28:46.952Z,62.25
2023-04-16T14:31:14.518Z,58.35
2023-04-16T14:33:42.130Z,49.20
2023-04-16T14:36:09.922Z,45.97
2023-04-16T14:38:37.429Z,42.58
2023-04-16T14:41:06.395Z,53.85
2023-04-16T14:43:34.277Z,35.53
2023-04-16T14:46:03.449Z,41.55
2023-04-16T14:48:31.075Z,34.65
2023-04-16T14:50:58.607Z,35.13
2023-04-16T14:53:26.113Z,36.10
2023-04-16T14:55:53.770Z,38.00
2023-04-16T14:58:22.879Z,36.78
2023-04-16T15:00:50.506Z,36.63
2023-04-16T15:03:18.285Z,35.67
2023-04-16T15:05:47.489Z,39.55
2023-04-16T15:08:16.098Z,35.70
2023-04-16T15:10:45.751Z,34.67
2023-04-16T15:13:13.395Z,33.47
2023-04-16T15:15:42.222Z,32.13
2023-04-16T15:18:09.851Z,33.67
2023-04-16T15:20:37.361Z,37.13
2023-04-16T15:23:05.142Z,36.55
2023-04-16T15:25:32.614Z,37.00
2023-04-16T15:28:02.459Z,35.92
2023-04-16T15:30:29.999Z,29.42
2023-04-16T15:32:58.878Z,35.17
2023-04-16T15:35:26.419Z,33.55
2023-04-16T15:37:55.398Z,31.70
2023-04-16T15:40:22.920Z,31.92
2023-04-16T15:42:50.429Z,32.63
2023-04-16T15:45:17.933Z,32.70
2023-04-16T15:47:47.970Z,35.20
2023-04-16T15:50:17.019Z,33.45
2023-04-16T15:52:44.547Z,34.63
2023-04-16T15:55:12.173Z,31.83
2023-04-16T15:57:39.809Z,32.70
2023-04-16T16:00:13.510Z,35.72
2023-04-16T16:02:41.779Z,28.25
2023-04-16T16:05:10.771Z,30.30
2023-04-16T16:07:39.715Z,23.90
2023-04-16T16:10:08.645Z,24.98
2023-04-16T16:12:36.488Z,27.75
2023-04-16T16:15:04.689Z,24.08
2023-04-16T16:17:32.272Z,24.80
2023-04-16T16:20:00.241Z,25.75
2023-04-16T16:22:27.768Z,23.23
2023-04-16T16:24:57.610Z,32.35
2023-04-16T16:27:25.123Z,25.10
2023-04-16T16:29:52.628Z,30.70
2023-04-16T16:32:20.128Z,28.70
2023-04-16T16:34:47.667Z,32.17
2023-04-16T16:37:15.436Z,24.13
2023-04-16T16:39:42.929Z,30.38
2023-04-16T16:42:11.927Z,28.80
2023-04-16T16:44:39.522Z,28.63
2023-04-16T16:47:07.063Z,32.80
2023-04-16T16:49:34.597Z,26.95
2023-04-16T16:52:02.153Z,24.90
2023-04-16T16:54:29.677Z,25.95
2023-04-16T16:56:57.157Z,25.83
2023-04-16T16:59:26.239Z,28.58
2023-04-16T17:01:53.771Z,24.95
2023-04-16T17:04:21.435Z,35.88
2023-04-16T17:06:49.221Z,26.60
2023-04-16T17:09:16.782Z,25.35
2023-04-16T17:11:44.294Z,24.25
2023-04-16T17:14:13.933Z,24.55
2023-04-16T17:16:42.850Z,20.60
2023-04-16T17:19:12.359Z,20.70
2023-04-16T17:21:39.948Z,19.70
2023-04-16T17:24:08.071Z,21.48
2023-04-16T17:26:35.566Z,18.75
2023-04-16T17:29:04.415Z,22.33
2023-04-16T17:31:32.030Z,18.70
2023-04-16T17:34:00.946Z,20.90
2023-04-16T17:36:28.426Z,16.77
2023-04-16T17:38:56.026Z,19.15
2023-04-16T17:41:23.509Z,22.08
2023-04-16T17:43:51.309Z,23.42
2023-04-16T17:46:18.859Z,19.25
2023-04-16T17:48:47.904Z,20.02
2023-04-16T17:51:16.983Z,18.67
2023-04-16T17:53:44.724Z,21.25
2023-04-16T17:56:12.401Z,20.80
2023-04-16T17:58:39.907Z,23.75
2023-04-16T18:01:07.450Z,24.30
2023-04-16T18:03:35.160Z,20.42
2023-04-16T18:06:02.710Z,21.88
2023-04-16T18:08:32.710Z,24.83
2023-04-16T18:11:00.179Z,21.52
2023-04-16T18:13:27.665Z,25.52
2023-04-16T18:15:55.535Z,19.88
2023-04-16T18:18:23.134Z,22.42
2023-04-16T18:20:50.622Z,24.73
2023-04-16T18:23:18.166Z,27.33
2023-04-16T18:25:48.817Z,26.00
2023-04-16T18:28:17.552Z,25.65
2023-04-16T18:30:45.309Z,23.45
2023-04-16T18:33:42.807Z,24.20
2023-04-16T18:36:01.525Z,25.23
2023-04-16T18:38:30.355Z,23.50
2023-04-16T18:40:59.247Z,35.00
2023-04-16T18:43:26.940Z,31.30
2023-04-16T18:45:54.428Z,37.65
2023-04-16T18:48:21.961Z,34.15
2023-04-16T18:50:49.467Z,29.90
2023-04-16T18:53:17.201Z,23.25
2023-04-16T18:55:44.714Z,27.52
2023-04-16T18:58:13.532Z,27.08
2023-04-16T19:00:41.127Z,25.92
2023-04-16T19:03:09.604Z,33.50
2023-04-16T19:05:37.129Z,24.77
2023-04-16T19:08:04.775Z,27.27
2023-04-16T19:10:32.339Z,24.50
2023-04-16T19:12:59.848Z,27.85
2023-04-16T19:15:31.577Z,22.90
2023-04-16T19:20:27.683Z,27.70
2023-04-16T19:22:55.367Z,21.08
2023-04-16T19:25:22.933Z,24.42
2023-04-16T19:27:51.134Z,21.83
2023-04-16T19:30:19.070Z,26.42
2023-04-16T19:32:47.987Z,26.00
2023-04-16T19:35:15.621Z,24.70
2023-04-16T19:37:43.503Z,25.42
2023-04-16T19:40:11.675Z,25.02
2023-04-16T19:42:39.940Z,22.48
2023-04-16T19:45:08.612Z,18.85
2023-04-16T19:47:36.152Z,20.67
2023-04-16T19:50:05.427Z,25.95
2023-04-16T19:52:37.311Z,23.63
2023-04-16T19:55:05.385Z,27.37
2023-04-16T19:57:33.050Z,24.55
2023-04-16T20:00:00.782Z,21.67
2023-04-16T20:02:28.420Z,22.25
2023-04-16T20:04:55.950Z,17.35
2023-04-16T20:07:24.775Z,24.85
2023-04-16T20:09:53.336Z,24.80
2023-04-16T20:12:20.995Z,20.73
2023-04-16T20:14:48.522Z,22.10
2023-04-16T20:17:18.594Z,22.27
2023-04-16T20:19:49.383Z,20.33
2023-04-16T20:22:18.620Z,21.92
2023-04-16T20:24:48.193Z,18.75
2023-04-16T20:27:16.812Z,18.23
2023-04-16T20:29:44.315Z,24.30
2023-04-16T20:32:11.800Z,24.73
2023-04-16T20:34:40.518Z,26.42
2023-04-16T20:37:08.068Z,23.80
2023-04-16T20:39:37.178Z,23.10
2023-04-16T20:42:10.369Z,25.23
2023-04-16T20:44:41.325Z,24.45
2023-04-16T20:47:09.256Z,22.42
2023-04-16T20:49:38.446Z,26.17
2023-04-16T20:52:07.272Z,26.35
2023-04-16T20:54:35.047Z,23.85
2023-04-16T20:57:04.785Z,24.73
2023-04-16T20:59:33.911Z,19.73
2023-04-16T21:02:01.647Z,20.38
2023-04-16T21:04:29.304Z,23.92
2023-04-16T21:06:56.850Z,23.63
2023-04-16T21:09:24.697Z,20.67
2023-04-16T21:11:52.438Z,23.85
2023-04-16T21:14:19.941Z,23.25
2023-04-16T21:16:48.781Z,19.70
2023-04-16T21:19:16.289Z,20.25
2023-04-16T21:21:43.808Z,22.63
2023-04-16T21:24:11.366Z,20.92
2023-04-16T21:26:38.862Z,24.30
2023-04-16T21:29:06.379Z,21.50
2023-04-16T21:31:33.921Z,22.85
2023-04-16T21:34:02.790Z,22.38
2023-04-16T21:36:32.071Z,24.33
2023-04-16T21:38:59.587Z,24.85
2023-04-16T21:41:27.153Z,25.85
2023-04-16T21:43:54.714Z,21.95
2023-04-16T21:46:22.572Z,19.45
2023-04-16T21:48:50.788Z,18.23
2023-04-16T21:51:20.097Z,22.25
2023-04-16T21:53:47.602Z,29.10
2023-04-16T21:56:15.173Z,23.92
2023-04-16T21:58:42.688Z,20.85
2023-04-16T22:01:11.050Z,19.02
2023-04-16T22:03:40.349Z,25.13
2023-04-16T22:06:08.730Z,19.83
2023-04-16T22:08:37.904Z,22.75
2023-04-16T22:11:05.588Z,20.38
2023-04-16T22:13:33.182Z,22.27
2023-04-16T22:16:02.319Z,25.95
2023-04-16T22:18:32.866Z,20.42
2023-04-16T22:21:00.799Z,19.60
2023-04-16T22:23:28.409Z,20.33
2023-04-16T22:25:57.648Z,22.80
2023-04-16T22:28:25.325Z,22.77
2023-04-16T22:30:52.833Z,20.33
2023-04-16T22:33:20.362Z,19.52
2023-04-16T22:35:48.001Z,17.38
2023-04-16T22:38:16.489Z,22.10
2023-04-16T22:40:44.158Z,18.65
2023-04-16T22:43:12.986Z,17.85
2023-04-16T22:45:41.106Z,19.75
2023-04-16T22:48:08.691Z,15.00
2023-04-16T22:50:36.220Z,13.75
2023-04-16T22:53:03.790Z,15.48
2023-04-16T22:55:31.276Z,15.77
2023-04-16T22:57:58.834Z,17.38
2023-04-16T23:00:28.446Z,17.40
2023-04-16T23:02:56.038Z,15.48
2023-04-16T23:05:23.597Z,18.60
2023-04-16T23:07:51.137Z,13.95
2023-04-16T23:10:18.620Z,16.83
2023-04-16T23:12:46.153Z,14.98
2023-04-16T23:15:14.439Z,19.38
2023-04-16T23:17:43.396Z,18.25
2023-04-16T23:20:12.165Z,12.80
2023-04-16T23:22:39.693Z,17.75
2023-04-16T23:25:08.812Z,18.00
2023-04-16T23:27:36.390Z,14.43
2023-04-16T23:30:04.564Z,18.00
2023-04-16T23:32:33.969Z,15.95
2023-04-16T23:35:02.967Z,15.50
2023-04-16T23:37:30.520Z,13.40
2023-04-16T23:39:58.057Z,12.68
2023-04-16T23:42:25.559Z,15.20
2023-04-16T23:44:53.129Z,13.70
2023-04-16T23:47:20.684Z,14.40
2023-04-16T23:49:48.200Z,12.93
2023-04-16T23:52:17.019Z,13.00
2023-04-16T23:54:44.503Z,14.02
2023-04-16T23:57:12.011Z,15.00
2023-04-16T23:59:39.615Z,14.82
